sensor_id;sensor_type;location;lat;lon;timestamp;P1;durP1;ratioP1;P2;durP2;ratioP2
64227;SDS011;50546;49.146;10.616;2022-08-01T00:00:06;4.80;;;2.10;;
64227;SDS011;50546;49.146;10.616;2022-08-01T00:02:33;6.85;;;2.00;;
64227;SDS011;50546;49.146;10.616;2022-08-01T00:04:58;5.18;;;2.30;;
64227;SDS011;50546;49.146;10.616;2022-08-01T00:07:25;6.07;;;2.42;;
64227;SDS011;50546;49.146;10.616;2022-08-01T00:09:50;4.93;;;2.30;;
64227;SDS011;50546;49.146;10.616;2022-08-01T00:12:16;5.13;;;2.20;;
64227;SDS011;50546;49.146;10.616;2022-08-01T00:14:41;4.90;;;1.98;;
64227;SDS011;50546;49.146;10.616;2022-08-01T00:17:06;4.95;;;2.10;;
64227;SDS011;50546;49.146;10.616;2022-08-01T00:19:31;5.45;;;2.30;;
64227;SDS011;50546;49.146;10.616;2022-08-01T00:21:57;5.32;;;2.20;;
64227;SDS011;50546;49.146;10.616;2022-08-01T00:24:22;5.13;;;2.38;;
64227;SDS011;50546;49.146;10.616;2022-08-01T00:26:47;5.07;;;2.33;;
64227;SDS011;50546;49.146;10.616;2022-08-01T00:29:13;5.57;;;2.33;;
64227;SDS011;50546;49.146;10.616;2022-08-01T00:31:38;5.00;;;2.30;;
64227;SDS011;50546;49.146;10.616;2022-08-01T00:34:03;5.20;;;2.20;;
64227;SDS011;50546;49.146;10.616;2022-08-01T00:36:29;6.07;;;2.28;;
64227;SDS011;50546;49.146;10.616;2022-08-01T00:38:54;5.20;;;2.10;;
64227;SDS011;50546;49.146;10.616;2022-08-01T00:41:19;5.32;;;2.40;;
64227;SDS011;50546;49.146;10.616;2022-08-01T00:43:45;6.03;;;2.30;;
64227;SDS011;50546;49.146;10.616;2022-08-01T00:46:10;5.47;;;2.20;;
64227;SDS011;50546;49.146;10.616;2022-08-01T00:48:35;5.93;;;2.10;;
64227;SDS011;50546;49.146;10.616;2022-08-01T00:51:01;5.82;;;2.15;;
64227;SDS011;50546;49.146;10.616;2022-08-01T00:53:28;5.47;;;2.25;;
64227;SDS011;50546;49.146;10.616;2022-08-01T00:55:54;6.35;;;2.28;;
64227;SDS011;50546;49.146;10.616;2022-08-01T00:58:19;4.90;;;1.95;;
64227;SDS011;50546;49.146;10.616;2022-08-01T01:00:45;6.00;;;2.30;;
64227;SDS011;50546;49.146;10.616;2022-08-01T01:03:10;5.57;;;2.22;;
64227;SDS011;50546;49.146;10.616;2022-08-01T01:05:37;5.75;;;2.20;;
64227;SDS011;50546;49.146;10.616;2022-08-01T01:08:18;7.25;;;2.33;;
64227;SDS011;50546;49.146;10.616;2022-08-01T01:10:52;6.20;;;2.40;;
64227;SDS011;50546;49.146;10.616;2022-08-01T01:13:24;7.45;;;2.40;;
64227;SDS011;50546;49.146;10.616;2022-08-01T01:16:06;5.50;;;2.20;;
64227;SDS011;50546;49.146;10.616;2022-08-01T01:18:37;5.20;;;2.20;;
64227;SDS011;50546;49.146;10.616;2022-08-01T01:21:25;5.70;;;2.13;;
64227;SDS011;50546;49.146;10.616;2022-08-01T01:29:13;5.97;;;2.53;;
64227;SDS011;50546;49.146;10.616;2022-08-01T01:31:55;6.63;;;2.42;;
64227;SDS011;50546;49.146;10.616;2022-08-01T01:34:24;6.78;;;2.58;;
64227;SDS011;50546;49.146;10.616;2022-08-01T01:36:52;5.50;;;2.20;;
64227;SDS011;50546;49.146;10.616;2022-08-01T01:39:21;5.00;;;2.17;;
64227;SDS011;50546;49.146;10.616;2022-08-01T01:41:50;5.60;;;2.40;;
64227;SDS011;50546;49.146;10.616;2022-08-01T01:44:18;6.28;;;2.22;;
64227;SDS011;50546;49.146;10.616;2022-08-01T01:46:44;7.75;;;2.38;;
64227;SDS011;50546;49.146;10.616;2022-08-01T01:49:11;5.63;;;2.60;;
64227;SDS011;50546;49.146;10.616;2022-08-01T01:51:37;5.28;;;2.38;;
64227;SDS011;50546;49.146;10.616;2022-08-01T01:54:05;6.15;;;2.78;;
64227;SDS011;50546;49.146;10.616;2022-08-01T01:56:33;5.35;;;2.60;;
64227;SDS011;50546;49.146;10.616;2022-08-01T01:59:00;6.60;;;2.50;;
64227;SDS011;50546;49.146;10.616;2022-08-01T02:01:28;5.20;;;2.47;;
64227;SDS011;50546;49.146;10.616;2022-08-01T02:03:56;6.03;;;2.78;;
64227;SDS011;50546;49.146;10.616;2022-08-01T02:06:22;5.70;;;2.40;;
64227;SDS011;50546;49.146;10.616;2022-08-01T02:08:49;6.38;;;2.33;;
64227;SDS011;50546;49.146;10.616;2022-08-01T02:11:16;7.25;;;2.40;;
64227;SDS011;50546;49.146;10.616;2022-08-01T02:13:44;5.30;;;2.50;;
64227;SDS011;50546;49.146;10.616;2022-08-01T02:16:13;6.20;;;2.40;;
64227;SDS011;50546;49.146;10.616;2022-08-01T02:18:40;6.40;;;2.65;;
64227;SDS011;50546;49.146;10.616;2022-08-01T02:21:08;5.30;;;2.25;;
64227;SDS011;50546;49.146;10.616;2022-08-01T02:23:37;6.40;;;2.80;;
64227;SDS011;50546;49.146;10.616;2022-08-01T02:26:07;6.13;;;2.40;;
64227;SDS011;50546;49.146;10.616;2022-08-01T02:28:49;6.90;;;2.60;;
64227;SDS011;50546;49.146;10.616;2022-08-01T02:31:21;5.30;;;2.40;;
64227;SDS011;50546;49.146;10.616;2022-08-01T02:33:50;6.35;;;2.90;;
64227;SDS011;50546;49.146;10.616;2022-08-01T02:36:22;5.75;;;2.63;;
64227;SDS011;50546;49.146;10.616;2022-08-01T02:38:50;5.30;;;2.30;;
64227;SDS011;50546;49.146;10.616;2022-08-01T02:41:18;5.80;;;2.53;;
64227;SDS011;50546;49.146;10.616;2022-08-01T02:43:46;6.60;;;2.90;;
64227;SDS011;50546;49.146;10.616;2022-08-01T02:46:26;7.05;;;2.80;;
64227;SDS011;50546;49.146;10.616;2022-08-01T02:48:56;7.15;;;2.60;;
64227;SDS011;50546;49.146;10.616;2022-08-01T02:51:25;5.70;;;2.53;;
64227;SDS011;50546;49.146;10.616;2022-08-01T02:53:52;5.40;;;2.33;;
64227;SDS011;50546;49.146;10.616;2022-08-01T02:56:18;5.55;;;2.53;;
64227;SDS011;50546;49.146;10.616;2022-08-01T02:58:46;6.18;;;2.60;;
64227;SDS011;50546;49.146;10.616;2022-08-01T03:01:14;6.03;;;2.28;;
64227;SDS011;50546;49.146;10.616;2022-08-01T03:03:41;5.20;;;2.42;;
64227;SDS011;50546;49.146;10.616;2022-08-01T03:06:07;5.50;;;2.50;;
64227;SDS011;50546;49.146;10.616;2022-08-01T03:08:33;5.60;;;2.60;;
64227;SDS011;50546;49.146;10.616;2022-08-01T03:11:01;5.25;;;2.67;;
64227;SDS011;50546;49.146;10.616;2022-08-01T03:13:27;5.55;;;2.60;;
64227;SDS011;50546;49.146;10.616;2022-08-01T03:15:54;5.35;;;2.50;;
64227;SDS011;50546;49.146;10.616;2022-08-01T03:18:22;6.53;;;2.80;;
64227;SDS011;50546;49.146;10.616;2022-08-01T03:20:51;7.05;;;2.83;;
64227;SDS011;50546;49.146;10.616;2022-08-01T03:23:19;5.70;;;2.50;;
64227;SDS011;50546;49.146;10.616;2022-08-01T03:25:47;5.70;;;2.60;;
64227;SDS011;50546;49.146;10.616;2022-08-01T03:28:14;6.20;;;2.80;;
64227;SDS011;50546;49.146;10.616;2022-08-01T03:30:41;6.57;;;2.70;;
64227;SDS011;50546;49.146;10.616;2022-08-01T03:33:08;6.47;;;2.95;;
64227;SDS011;50546;49.146;10.616;2022-08-01T03:35:34;6.13;;;2.60;;
64227;SDS011;50546;49.146;10.616;2022-08-01T03:38:02;5.30;;;2.53;;
64227;SDS011;50546;49.146;10.616;2022-08-01T03:43:46;7.68;;;2.55;;
64227;SDS011;50546;49.146;10.616;2022-08-01T03:46:20;5.60;;;2.63;;
64227;SDS011;50546;49.146;10.616;2022-08-01T03:48:51;5.80;;;3.00;;
64227;SDS011;50546;49.146;10.616;2022-08-01T03:51:20;6.63;;;3.00;;
64227;SDS011;50546;49.146;10.616;2022-08-01T03:53:47;6.45;;;2.95;;
64227;SDS011;50546;49.146;10.616;2022-08-01T03:56:16;5.82;;;2.85;;
64227;SDS011;50546;49.146;10.616;2022-08-01T03:58:44;5.40;;;2.55;;
64227;SDS011;50546;49.146;10.616;2022-08-01T04:01:10;6.32;;;2.70;;
64227;SDS011;50546;49.146;10.616;2022-08-01T04:03:36;6.93;;;2.80;;
64227;SDS011;50546;49.146;10.616;2022-08-01T04:06:05;6.35;;;2.90;;
64227;SDS011;50546;49.146;10.616;2022-08-01T04:08:40;5.20;;;2.40;;
64227;SDS011;50546;49.146;10.616;2022-08-01T04:11:07;6.43;;;2.83;;
64227;SDS011;50546;49.146;10.616;2022-08-01T04:13:33;6.07;;;2.67;;
64227;SDS011;50546;49.146;10.616;2022-08-01T04:15:58;7.63;;;2.50;;
64227;SDS011;50546;49.146;10.616;2022-08-01T04:18:24;6.28;;;2.80;;
64227;SDS011;50546;49.146;10.616;2022-08-01T04:20:50;5.82;;;2.80;;
64227;SDS011;50546;49.146;10.616;2022-08-01T04:23:16;5.60;;;2.50;;
64227;SDS011;50546;49.146;10.616;2022-08-01T04:25:45;5.53;;;2.70;;
64227;SDS011;50546;49.146;10.616;2022-08-01T04:28:13;6.13;;;2.58;;
64227;SDS011;50546;49.146;10.616;2022-08-01T04:30:41;8.07;;;2.70;;
64227;SDS011;50546;49.146;10.616;2022-08-01T04:33:09;7.50;;;2.90;;
64227;SDS011;50546;49.146;10.616;2022-08-01T04:35:36;6.28;;;2.80;;
64227;SDS011;50546;49.146;10.616;2022-08-01T04:38:05;6.95;;;2.90;;
64227;SDS011;50546;49.146;10.616;2022-08-01T04:40:33;6.13;;;3.00;;
64227;SDS011;50546;49.146;10.616;2022-08-01T04:43:01;5.53;;;2.90;;
64227;SDS011;50546;49.146;10.616;2022-08-01T04:45:27;5.97;;;2.75;;
64227;SDS011;50546;49.146;10.616;2022-08-01T04:47:53;6.22;;;2.95;;
64227;SDS011;50546;49.146;10.616;2022-08-01T04:50:19;5.80;;;3.10;;
64227;SDS011;50546;49.146;10.616;2022-08-01T04:52:46;6.32;;;2.70;;
64227;SDS011;50546;49.146;10.616;2022-08-01T04:55:12;6.00;;;2.83;;
64227;SDS011;50546;49.146;10.616;2022-08-01T04:57:39;6.07;;;2.55;;
64227;SDS011;50546;49.146;10.616;2022-08-01T05:00:07;7.35;;;2.78;;
64227;SDS011;50546;49.146;10.616;2022-08-01T05:02:33;5.82;;;2.55;;
64227;SDS011;50546;49.146;10.616;2022-08-01T05:04:59;6.30;;;2.80;;
64227;SDS011;50546;49.146;10.616;2022-08-01T05:07:24;6.13;;;2.70;;
64227;SDS011;50546;49.146;10.616;2022-08-01T05:09:49;6.15;;;2.75;;
64227;SDS011;50546;49.146;10.616;2022-08-01T05:12:15;6.55;;;3.00;;
64227;SDS011;50546;49.146;10.616;2022-08-01T05:14:41;7.22;;;3.20;;
64227;SDS011;50546;49.146;10.616;2022-08-01T05:17:07;5.75;;;2.95;;
64227;SDS011;50546;49.146;10.616;2022-08-01T05:19:33;6.13;;;2.60;;
64227;SDS011;50546;49.146;10.616;2022-08-01T05:22:00;5.60;;;2.65;;
64227;SDS011;50546;49.146;10.616;2022-08-01T05:24:29;6.20;;;2.97;;
64227;SDS011;50546;49.146;10.616;2022-08-01T05:26:55;5.68;;;2.67;;
64227;SDS011;50546;49.146;10.616;2022-08-01T05:29:21;6.00;;;2.75;;
64227;SDS011;50546;49.146;10.616;2022-08-01T05:31:47;5.95;;;3.00;;
64227;SDS011;50546;49.146;10.616;2022-08-01T05:34:12;6.10;;;2.92;;
64227;SDS011;50546;49.146;10.616;2022-08-01T05:36:37;7.00;;;3.33;;
64227;SDS011;50546;49.146;10.616;2022-08-01T05:39:03;5.80;;;2.80;;
64227;SDS011;50546;49.146;10.616;2022-08-01T05:41:29;6.05;;;2.90;;
64227;SDS011;50546;49.146;10.616;2022-08-01T05:43:55;5.90;;;3.13;;
64227;SDS011;50546;49.146;10.616;2022-08-01T05:46:20;5.80;;;3.05;;
64227;SDS011;50546;49.146;10.616;2022-08-01T05:48:46;6.13;;;2.80;;
64227;SDS011;50546;49.146;10.616;2022-08-01T05:51:11;6.30;;;3.13;;
64227;SDS011;50546;49.146;10.616;2022-08-01T05:53:36;6.57;;;3.47;;
64227;SDS011;50546;49.146;10.616;2022-08-01T05:56:02;6.03;;;3.00;;
64227;SDS011;50546;49.146;10.616;2022-08-01T05:58:27;6.30;;;3.13;;
64227;SDS011;50546;49.146;10.616;2022-08-01T06:00:52;6.60;;;3.03;;
64227;SDS011;50546;49.146;10.616;2022-08-01T06:03:18;6.10;;;2.92;;
64227;SDS011;50546;49.146;10.616;2022-08-01T06:05:43;7.18;;;3.05;;
64227;SDS011;50546;49.146;10.616;2022-08-01T06:08:09;6.28;;;3.45;;
64227;SDS011;50546;49.146;10.616;2022-08-01T06:10:34;6.80;;;2.90;;
64227;SDS011;50546;49.146;10.616;2022-08-01T06:12:59;6.03;;;3.22;;
64227;SDS011;50546;49.146;10.616;2022-08-01T06:15:28;6.00;;;3.00;;
64227;SDS011;50546;49.146;10.616;2022-08-01T06:17:55;6.18;;;3.03;;
64227;SDS011;50546;49.146;10.616;2022-08-01T06:20:20;6.40;;;2.88;;
64227;SDS011;50546;49.146;10.616;2022-08-01T06:22:46;5.80;;;2.67;;
64227;SDS011;50546;49.146;10.616;2022-08-01T06:25:11;6.65;;;3.03;;
64227;SDS011;50546;49.146;10.616;2022-08-01T06:27:36;5.72;;;2.67;;
64227;SDS011;50546;49.146;10.616;2022-08-01T06:30:03;5.70;;;2.80;;
64227;SDS011;50546;49.146;10.616;2022-08-01T06:32:29;6.82;;;3.00;;
64227;SDS011;50546;49.146;10.616;2022-08-01T06:34:54;6.65;;;2.80;;
64227;SDS011;50546;49.146;10.616;2022-08-01T06:37:20;6.95;;;2.78;;
64227;SDS011;50546;49.146;10.616;2022-08-01T06:39:46;6.13;;;2.53;;
64227;SDS011;50546;49.146;10.616;2022-08-01T06:42:11;6.35;;;3.05;;
64227;SDS011;50546;49.146;10.616;2022-08-01T06:44:37;6.78;;;2.90;;
64227;SDS011;50546;49.146;10.616;2022-08-01T06:47:02;5.50;;;2.60;;
64227;SDS011;50546;49.146;10.616;2022-08-01T06:49:27;5.13;;;2.50;;
64227;SDS011;50546;49.146;10.616;2022-08-01T06:51:53;6.28;;;2.40;;
64227;SDS011;50546;49.146;10.616;2022-08-01T06:54:18;5.55;;;2.63;;
64227;SDS011;50546;49.146;10.616;2022-08-01T06:56:44;7.57;;;2.92;;
64227;SDS011;50546;49.146;10.616;2022-08-01T06:59:09;6.03;;;2.70;;
64227;SDS011;50546;49.146;10.616;2022-08-01T07:01:34;6.07;;;2.67;;
64227;SDS011;50546;49.146;10.616;2022-08-01T07:04:00;6.00;;;2.72;;
64227;SDS011;50546;49.146;10.616;2022-08-01T07:06:25;5.85;;;3.05;;
64227;SDS011;50546;49.146;10.616;2022-08-01T07:08:53;6.32;;;3.00;;
64227;SDS011;50546;49.146;10.616;2022-08-01T07:11:19;5.72;;;3.00;;
64227;SDS011;50546;49.146;10.616;2022-08-01T07:13:46;5.95;;;2.78;;
64227;SDS011;50546;49.146;10.616;2022-08-01T07:16:12;5.50;;;2.55;;
64227;SDS011;50546;49.146;10.616;2022-08-01T07:18:38;5.47;;;2.63;;
64227;SDS011;50546;49.146;10.616;2022-08-01T07:21:03;6.72;;;3.00;;
64227;SDS011;50546;49.146;10.616;2022-08-01T07:23:28;5.90;;;2.90;;
64227;SDS011;50546;49.146;10.616;2022-08-01T07:25:53;6.88;;;2.83;;
64227;SDS011;50546;49.146;10.616;2022-08-01T07:28:19;6.85;;;2.70;;
64227;SDS011;50546;49.146;10.616;2022-08-01T07:30:44;8.27;;;2.97;;
64227;SDS011;50546;49.146;10.616;2022-08-01T07:33:10;5.75;;;2.80;;
64227;SDS011;50546;49.146;10.616;2022-08-01T07:35:35;6.18;;;3.13;;
64227;SDS011;50546;49.146;10.616;2022-08-01T07:38:03;6.90;;;3.00;;
64227;SDS011;50546;49.146;10.616;2022-08-01T07:40:29;7.90;;;3.30;;
64227;SDS011;50546;49.146;10.616;2022-08-01T07:42:54;6.13;;;2.85;;
64227;SDS011;50546;49.146;10.616;2022-08-01T07:45:20;6.88;;;3.28;;
64227;SDS011;50546;49.146;10.616;2022-08-01T07:47:45;5.90;;;2.88;;
64227;SDS011;50546;49.146;10.616;2022-08-01T07:50:11;7.28;;;3.50;;
64227;SDS011;50546;49.146;10.616;2022-08-01T07:52:37;6.85;;;3.28;;
64227;SDS011;50546;49.146;10.616;2022-08-01T07:55:03;5.78;;;3.00;;
64227;SDS011;50546;49.146;10.616;2022-08-01T07:57:29;6.05;;;3.13;;
64227;SDS011;50546;49.146;10.616;2022-08-01T07:59:54;6.65;;;2.65;;
64227;SDS011;50546;49.146;10.616;2022-08-01T08:02:19;5.60;;;2.65;;
64227;SDS011;50546;49.146;10.616;2022-08-01T08:04:45;6.33;;;2.80;;
64227;SDS011;50546;49.146;10.616;2022-08-01T08:07:10;6.25;;;2.80;;
64227;SDS011;50546;49.146;10.616;2022-08-01T08:09:35;6.18;;;2.50;;
64227;SDS011;50546;49.146;10.616;2022-08-01T08:12:02;6.88;;;2.55;;
64227;SDS011;50546;49.146;10.616;2022-08-01T08:14:27;6.40;;;2.53;;
64227;SDS011;50546;49.146;10.616;2022-08-01T08:16:54;5.40;;;2.40;;
64227;SDS011;50546;49.146;10.616;2022-08-01T08:19:19;5.93;;;2.60;;
64227;SDS011;50546;49.146;10.616;2022-08-01T08:21:44;5.95;;;2.40;;
64227;SDS011;50546;49.146;10.616;2022-08-01T08:24:10;8.88;;;3.17;;
64227;SDS011;50546;49.146;10.616;2022-08-01T08:26:45;6.80;;;2.45;;
64227;SDS011;50546;49.146;10.616;2022-08-01T08:29:11;5.25;;;2.22;;
64227;SDS011;50546;49.146;10.616;2022-08-01T08:31:36;5.57;;;2.10;;
64227;SDS011;50546;49.146;10.616;2022-08-01T08:34:01;6.55;;;2.20;;
64227;SDS011;50546;49.146;10.616;2022-08-01T08:36:27;6.20;;;2.65;;
64227;SDS011;50546;49.146;10.616;2022-08-01T08:38:52;5.72;;;2.30;;
64227;SDS011;50546;49.146;10.616;2022-08-01T08:41:17;8.20;;;2.75;;
64227;SDS011;50546;49.146;10.616;2022-08-01T08:43:43;6.55;;;2.50;;
64227;SDS011;50546;49.146;10.616;2022-08-01T08:46:08;5.68;;;2.40;;
64227;SDS011;50546;49.146;10.616;2022-08-01T08:48:36;6.28;;;2.53;;
64227;SDS011;50546;49.146;10.616;2022-08-01T08:51:04;7.38;;;2.55;;
64227;SDS011;50546;49.146;10.616;2022-08-01T08:53:30;6.68;;;2.20;;
64227;SDS011;50546;49.146;10.616;2022-08-01T08:55:58;6.35;;;2.15;;
64227;SDS011;50546;49.146;10.616;2022-08-01T08:58:25;5.35;;;2.10;;
64227;SDS011;50546;49.146;10.616;2022-08-01T09:00:52;5.65;;;1.90;;
64227;SDS011;50546;49.146;10.616;2022-08-01T09:03:19;5.35;;;2.05;;
64227;SDS011;50546;49.146;10.616;2022-08-01T09:05:44;5.05;;;2.00;;
64227;SDS011;50546;49.146;10.616;2022-08-01T09:08:09;5.35;;;1.98;;
64227;SDS011;50546;49.146;10.616;2022-08-01T09:10:35;5.95;;;2.28;;
64227;SDS011;50546;49.146;10.616;2022-08-01T09:13:11;4.40;;;1.65;;
64227;SDS011;50546;49.146;10.616;2022-08-01T09:18:03;4.57;;;1.50;;
64227;SDS011;50546;49.146;10.616;2022-08-01T09:20:29;6.00;;;1.58;;
64227;SDS011;50546;49.146;10.616;2022-08-01T09:22:54;4.90;;;1.63;;
64227;SDS011;50546;49.146;10.616;2022-08-01T09:25:19;5.53;;;1.50;;
64227;SDS011;50546;49.146;10.616;2022-08-01T09:27:44;5.72;;;1.40;;
64227;SDS011;50546;49.146;10.616;2022-08-01T09:30:17;6.15;;;1.63;;
64227;SDS011;50546;49.146;10.616;2022-08-01T09:32:53;4.78;;;1.55;;
64227;SDS011;50546;49.146;10.616;2022-08-01T09:35:26;5.45;;;1.58;;
64227;SDS011;50546;49.146;10.616;2022-08-01T09:37:59;4.57;;;1.60;;
64227;SDS011;50546;49.146;10.616;2022-08-01T09:40:48;4.65;;;1.40;;
64227;SDS011;50546;49.146;10.616;2022-08-01T09:43:19;7.10;;;1.83;;
64227;SDS011;50546;49.146;10.616;2022-08-01T09:45:45;4.63;;;1.50;;
64227;SDS011;50546;49.146;10.616;2022-08-01T09:48:11;4.40;;;1.38;;
64227;SDS011;50546;49.146;10.616;2022-08-01T09:50:44;4.57;;;1.45;;
64227;SDS011;50546;49.146;10.616;2022-08-01T09:53:11;4.78;;;1.48;;
64227;SDS011;50546;49.146;10.616;2022-08-01T09:55:37;5.20;;;1.30;;
64227;SDS011;50546;49.146;10.616;2022-08-01T09:58:04;6.20;;;1.40;;
64227;SDS011;50546;49.146;10.616;2022-08-01T10:00:31;4.40;;;1.30;;
64227;SDS011;50546;49.146;10.616;2022-08-01T10:02:58;4.70;;;1.30;;
64227;SDS011;50546;49.146;10.616;2022-08-01T10:05:31;5.00;;;1.40;;
64227;SDS011;50546;49.146;10.616;2022-08-01T10:07:58;5.07;;;1.40;;
64227;SDS011;50546;49.146;10.616;2022-08-01T10:10:25;4.65;;;1.23;;
64227;SDS011;50546;49.146;10.616;2022-08-01T10:12:51;4.75;;;1.30;;
64227;SDS011;50546;49.146;10.616;2022-08-01T10:15:17;4.85;;;1.50;;
64227;SDS011;50546;49.146;10.616;2022-08-01T10:17:46;5.22;;;1.50;;
64227;SDS011;50546;49.146;10.616;2022-08-01T10:20:26;4.45;;;1.48;;
64227;SDS011;50546;49.146;10.616;2022-08-01T10:22:54;4.95;;;1.40;;
64227;SDS011;50546;49.146;10.616;2022-08-01T10:25:22;4.13;;;1.17;;
64227;SDS011;50546;49.146;10.616;2022-08-01T10:27:52;4.72;;;1.33;;
64227;SDS011;50546;49.146;10.616;2022-08-01T10:30:21;4.10;;;1.30;;
64227;SDS011;50546;49.146;10.616;2022-08-01T10:32:47;5.47;;;1.30;;
64227;SDS011;50546;49.146;10.616;2022-08-01T10:35:13;6.70;;;1.40;;
64227;SDS011;50546;49.146;10.616;2022-08-01T10:37:42;4.05;;;1.27;;
64227;SDS011;50546;49.146;10.616;2022-08-01T10:40:11;4.80;;;1.50;;
64227;SDS011;50546;49.146;10.616;2022-08-01T10:42:39;4.15;;;1.30;;
64227;SDS011;50546;49.146;10.616;2022-08-01T10:45:06;4.13;;;1.40;;
64227;SDS011;50546;49.146;10.616;2022-08-01T10:48:20;4.85;;;1.38;;
64227;SDS011;50546;49.146;10.616;2022-08-01T10:50:31;4.40;;;1.40;;
64227;SDS011;50546;49.146;10.616;2022-08-01T10:53:14;4.63;;;1.48;;
64227;SDS011;50546;49.146;10.616;2022-08-01T10:55:46;5.25;;;1.20;;
64227;SDS011;50546;49.146;10.616;2022-08-01T10:58:11;5.15;;;1.50;;
64227;SDS011;50546;49.146;10.616;2022-08-01T11:00:36;4.57;;;1.25;;
64227;SDS011;50546;49.146;10.616;2022-08-01T11:03:02;6.35;;;1.45;;
64227;SDS011;50546;49.146;10.616;2022-08-01T11:05:33;5.72;;;1.52;;
64227;SDS011;50546;49.146;10.616;2022-08-01T11:08:08;4.30;;;1.50;;
64227;SDS011;50546;49.146;10.616;2022-08-01T11:10:39;4.82;;;1.35;;
64227;SDS011;50546;49.146;10.616;2022-08-01T11:13:06;4.25;;;1.30;;
64227;SDS011;50546;49.146;10.616;2022-08-01T11:15:36;13.45;;;1.33;;
64227;SDS011;50546;49.146;10.616;2022-08-01T11:18:03;4.93;;;1.27;;
64227;SDS011;50546;49.146;10.616;2022-08-01T11:21:00;4.20;;;1.40;;
64227;SDS011;50546;49.146;10.616;2022-08-01T11:23:27;4.20;;;1.10;;
64227;SDS011;50546;49.146;10.616;2022-08-01T11:28:19;4.07;;;1.30;;
64227;SDS011;50546;49.146;10.616;2022-08-01T11:30:50;4.70;;;1.33;;
64227;SDS011;50546;49.146;10.616;2022-08-01T11:43:54;4.57;;;1.17;;
64227;SDS011;50546;49.146;10.616;2022-08-01T11:54:40;3.78;;;1.13;;
64227;SDS011;50546;49.146;10.616;2022-08-01T11:57:13;4.03;;;1.10;;
64227;SDS011;50546;49.146;10.616;2022-08-01T11:59:44;3.70;;;1.00;;
64227;SDS011;50546;49.146;10.616;2022-08-01T12:02:18;3.83;;;1.10;;
64227;SDS011;50546;49.146;10.616;2022-08-01T12:04:44;3.65;;;1.08;;
64227;SDS011;50546;49.146;10.616;2022-08-01T12:09:40;3.45;;;1.00;;
64227;SDS011;50546;49.146;10.616;2022-08-01T12:12:06;4.47;;;1.10;;
64227;SDS011;50546;49.146;10.616;2022-08-01T12:14:31;3.30;;;0.98;;
64227;SDS011;50546;49.146;10.616;2022-08-01T12:16:56;3.97;;;1.10;;
64227;SDS011;50546;49.146;10.616;2022-08-01T12:19:23;4.32;;;1.00;;
64227;SDS011;50546;49.146;10.616;2022-08-01T12:24:46;4.20;;;1.13;;
64227;SDS011;50546;49.146;10.616;2022-08-01T12:27:12;3.88;;;1.10;;
64227;SDS011;50546;49.146;10.616;2022-08-01T12:29:49;4.22;;;1.20;;
64227;SDS011;50546;49.146;10.616;2022-08-01T12:32:25;3.67;;;1.25;;
64227;SDS011;50546;49.146;10.616;2022-08-01T12:34:56;3.58;;;1.00;;
64227;SDS011;50546;49.146;10.616;2022-08-01T12:37:25;4.40;;;1.20;;
64227;SDS011;50546;49.146;10.616;2022-08-01T12:39:51;4.68;;;1.30;;
64227;SDS011;50546;49.146;10.616;2022-08-01T12:42:16;3.58;;;1.10;;
64227;SDS011;50546;49.146;10.616;2022-08-01T12:44:43;3.72;;;1.00;;
64227;SDS011;50546;49.146;10.616;2022-08-01T12:49:38;5.00;;;1.10;;
64227;SDS011;50546;49.146;10.616;2022-08-01T12:52:06;5.32;;;1.20;;
64227;SDS011;50546;49.146;10.616;2022-08-01T12:54:59;3.95;;;1.23;;
64227;SDS011;50546;49.146;10.616;2022-08-01T12:57:28;4.20;;;1.10;;
64227;SDS011;50546;49.146;10.616;2022-08-01T13:00:03;4.43;;;1.10;;
64227;SDS011;50546;49.146;10.616;2022-08-01T13:02:35;4.63;;;1.25;;
64227;SDS011;50546;49.146;10.616;2022-08-01T13:05:01;3.78;;;1.00;;
64227;SDS011;50546;49.146;10.616;2022-08-01T13:07:37;3.80;;;1.10;;
64227;SDS011;50546;49.146;10.616;2022-08-01T13:10:13;4.22;;;1.20;;
64227;SDS011;50546;49.146;10.616;2022-08-01T13:12:40;5.45;;;1.27;;
64227;SDS011;50546;49.146;10.616;2022-08-01T13:15:17;4.20;;;1.17;;
64227;SDS011;50546;49.146;10.616;2022-08-01T13:17:44;3.55;;;0.90;;
64227;SDS011;50546;49.146;10.616;2022-08-01T13:20:09;5.22;;;1.33;;
64227;SDS011;50546;49.146;10.616;2022-08-01T13:22:35;3.50;;;1.10;;
64227;SDS011;50546;49.146;10.616;2022-08-01T13:25:14;4.60;;;1.10;;
64227;SDS011;50546;49.146;10.616;2022-08-01T13:27:40;4.18;;;1.13;;
64227;SDS011;50546;49.146;10.616;2022-08-01T13:30:09;5.15;;;1.20;;
64227;SDS011;50546;49.146;10.616;2022-08-01T13:32:38;6.47;;;1.20;;
64227;SDS011;50546;49.146;10.616;2022-08-01T13:35:05;3.72;;;1.10;;
64227;SDS011;50546;49.146;10.616;2022-08-01T13:37:34;6.43;;;1.33;;
64227;SDS011;50546;49.146;10.616;2022-08-01T13:40:00;3.35;;;1.00;;
64227;SDS011;50546;49.146;10.616;2022-08-01T13:42:25;4.70;;;1.20;;
64227;SDS011;50546;49.146;10.616;2022-08-01T13:44:50;3.75;;;1.10;;
64227;SDS011;50546;49.146;10.616;2022-08-01T13:47:16;3.90;;;1.13;;
64227;SDS011;50546;49.146;10.616;2022-08-01T13:49:41;3.83;;;1.10;;
64227;SDS011;50546;49.146;10.616;2022-08-01T13:52:06;3.53;;;1.10;;
64227;SDS011;50546;49.146;10.616;2022-08-01T13:54:32;4.10;;;1.20;;
64227;SDS011;50546;49.146;10.616;2022-08-01T13:56:58;3.67;;;1.00;;
64227;SDS011;50546;49.146;10.616;2022-08-01T13:59:23;4.72;;;1.23;;
64227;SDS011;50546;49.146;10.616;2022-08-01T14:01:49;4.28;;;1.20;;
64227;SDS011;50546;49.146;10.616;2022-08-01T14:04:14;4.70;;;1.20;;
64227;SDS011;50546;49.146;10.616;2022-08-01T14:06:40;3.63;;;1.10;;
64227;SDS011;50546;49.146;10.616;2022-08-01T14:09:05;4.18;;;1.10;;
64227;SDS011;50546;49.146;10.616;2022-08-01T14:11:31;4.13;;;1.20;;
64227;SDS011;50546;49.146;10.616;2022-08-01T14:13:56;4.10;;;1.10;;
64227;SDS011;50546;49.146;10.616;2022-08-01T14:16:22;3.95;;;1.20;;
64227;SDS011;50546;49.146;10.616;2022-08-01T14:18:47;4.68;;;1.10;;
64227;SDS011;50546;49.146;10.616;2022-08-01T14:21:12;7.97;;;1.20;;
64227;SDS011;50546;49.146;10.616;2022-08-01T14:23:39;5.40;;;1.13;;
64227;SDS011;50546;49.146;10.616;2022-08-01T14:26:05;3.67;;;1.10;;
64227;SDS011;50546;49.146;10.616;2022-08-01T14:28:30;5.10;;;1.20;;
64227;SDS011;50546;49.146;10.616;2022-08-01T14:30:56;4.78;;;1.20;;
64227;SDS011;50546;49.146;10.616;2022-08-01T14:33:22;6.55;;;1.42;;
64227;SDS011;50546;49.146;10.616;2022-08-01T14:35:48;4.00;;;1.10;;
64227;SDS011;50546;49.146;10.616;2022-08-01T14:38:14;4.20;;;1.10;;
64227;SDS011;50546;49.146;10.616;2022-08-01T14:40:39;3.70;;;1.13;;
64227;SDS011;50546;49.146;10.616;2022-08-01T14:43:05;5.55;;;1.50;;
64227;SDS011;50546;49.146;10.616;2022-08-01T14:45:31;6.47;;;1.30;;
64227;SDS011;50546;49.146;10.616;2022-08-01T14:47:57;4.45;;;1.20;;
64227;SDS011;50546;49.146;10.616;2022-08-01T14:50:23;6.28;;;1.20;;
64227;SDS011;50546;49.146;10.616;2022-08-01T14:52:51;4.72;;;1.20;;
64227;SDS011;50546;49.146;10.616;2022-08-01T14:55:17;4.22;;;1.20;;
64227;SDS011;50546;49.146;10.616;2022-08-01T14:57:42;4.82;;;1.20;;
64227;SDS011;50546;49.146;10.616;2022-08-01T15:00:08;5.00;;;1.20;;
64227;SDS011;50546;49.146;10.616;2022-08-01T15:02:36;4.68;;;1.10;;
64227;SDS011;50546;49.146;10.616;2022-08-01T15:05:02;4.47;;;1.15;;
64227;SDS011;50546;49.146;10.616;2022-08-01T15:07:27;4.38;;;1.00;;
64227;SDS011;50546;49.146;10.616;2022-08-01T15:09:53;4.75;;;1.20;;
64227;SDS011;50546;49.146;10.616;2022-08-01T15:12:18;5.00;;;1.00;;
64227;SDS011;50546;49.146;10.616;2022-08-01T15:14:43;4.43;;;1.08;;